Time;durP1;ratioP1;P1;durP2;ratioP2;P2;SDS_P1;SDS_P2;PMS_P1;PMS_P2;Temp;Humidity;BMP_temperature;BMP_pressure;BME280_temperature;BME280_humidity;BME280_pressure;Samples;Min_cycle;Max_cycle;Signal;HPM_P1;HPM_P2
2023/05/06 00:01:20;;;;;;;3.40;1.80;;;;;;;7.17;36.23;99853.19;4996416;28;20499;-80
2023/05/06 00:03:47;;;;;;;4.57;1.70;;;;;;;7.12;36.14;99859.84;4995058;28;20080;-80
2023/05/06 00:06:15;;;;;;;4.33;1.60;;;;;;;7.26;36.41;99862.16;4995970;28;20049;-81
2023/05/06 00:08:40;;;;;;;4.80;1.70;;;;;;;7.07;36.48;99862.03;4996139;28;20045;-80
2023/05/06 00:11:06;;;;;;;1.93;1.50;;;;;;;7.05;36.52;99862.16;5009438;28;20115;-80
2023/05/06 00:13:32;;;;;;;2.37;1.50;;;;;;;7.05;36.50;99871.88;4979638;28;20161;-80
2023/05/06 00:16:01;;;;;;;6.60;1.70;;;;;;;7.02;36.51;99869.50;4980331;28;20499;-79
2023/05/06 00:18:27;;;;;;;2.23;1.50;;;;;;;7.12;36.97;99863.31;4997899;28;20072;-79
2023/05/06 00:20:54;;;;;;;2.33;1.57;;;;;;;6.96;36.71;99864.75;4965221;28;20495;-79
2023/05/06 00:23:20;;;;;;;2.07;1.30;;;;;;;6.95;36.81;99869.16;4958216;28;20144;-78
2023/05/06 00:25:46;;;;;;;4.47;1.87;;;;;;;6.95;37.05;99863.88;4958345;28;20148;-82
2023/05/06 00:28:12;;;;;;;3.70;1.50;;;;;;;6.97;37.26;99866.41;4974908;28;20058;-81
2023/05/06 00:30:38;;;;;;;3.60;1.77;;;;;;;6.96;37.36;99870.03;4974583;28;20050;-82
2023/05/06 00:33:04;;;;;;;3.17;1.90;;;;;;;6.94;37.49;99870.16;4943117;28;20064;-81
2023/05/06 00:35:30;;;;;;;4.73;2.10;;;;;;;6.95;37.72;99868.34;4974713;28;20481;-81
2023/05/06 00:38:06;;;;;;;3.30;1.83;;;;;;;7.32;37.66;99874.81;4960545;28;20562;-80
2023/05/06 00:40:32;;;;;;;3.03;1.80;;;;;;;6.92;37.81;99869.44;4997976;28;20038;-82
2023/05/06 00:42:59;;;;;;;2.97;1.50;;;;;;;6.86;37.95;99864.66;5006572;28;20480;-83
2023/05/06 00:45:26;;;;;;;2.70;1.40;;;;;;;6.80;38.43;99870.47;5031298;28;20039;-81
2023/05/06 00:47:53;;;;;;;1.93;1.50;;;;;;;6.97;38.68;99872.53;5044437;28;20043;-80
2023/05/06 00:50:19;;;;;;;3.50;1.47;;;;;;;6.78;38.80;99869.78;5028474;28;20048;-82
2023/05/06 00:52:46;;;;;;;3.80;1.60;;;;;;;6.96;39.46;99880.59;5028475;28;20075;-81
2023/05/06 00:55:14;;;;;;;3.33;1.40;;;;;;;6.74;39.54;99874.47;5076914;28;20490;-78
2023/05/06 00:57:41;;;;;;;4.27;1.70;;;;;;;6.74;40.02;99866.56;5062936;28;20735;-81
2023/05/06 01:00:07;;;;;;;1.50;1.40;;;;;;;6.74;40.47;99882.38;5046938;28;20104;-80
2023/05/06 01:02:34;;;;;;;2.17;1.97;;;;;;;6.61;40.30;99884.34;5047639;28;20059;-81
2023/05/06 01:05:02;;;;;;;4.33;1.57;;;;;;;6.58;40.89;99881.16;5071076;28;20055;-80
2023/05/06 01:07:35;;;;;;;1.80;1.27;;;;;;;6.89;41.04;99883.75;5066970;28;20039;-80
2023/05/06 01:10:12;;;;;;;1.93;1.57;;;;;;;6.98;41.05;99883.94;5035013;28;20040;-81
2023/05/06 01:12:54;;;;;;;2.23;1.30;;;;;;;6.93;41.29;99879.88;5024424;28;20048;-81
2023/05/06 01:15:32;;;;;;;3.83;1.50;;;;;;;6.87;41.36;99884.84;4991198;28;20041;-79
2023/05/06 01:18:00;;;;;;;3.53;1.40;;;;;;;6.74;41.56;99887.66;5007385;28;20048;-81
2023/05/06 01:20:29;;;;;;;2.97;1.40;;;;;;;6.68;41.84;99884.69;5007017;28;20073;-82
2023/05/06 01:22:55;;;;;;;1.50;1.30;;;;;;;6.59;41.63;99883.66;5024484;28;20051;-82
2023/05/06 01:25:22;;;;;;;1.83;1.57;;;;;;;6.42;41.75;99892.13;5008689;28;20053;-82
2023/05/06 01:27:49;;;;;;;1.77;1.60;;;;;;;6.53;41.89;99891.25;4984917;28;20460;-82
2023/05/06 01:30:18;;;;;;;2.30;1.57;;;;;;;6.65;42.07;99890.22;4967846;28;20058;-82
2023/05/06 01:32:46;;;;;;;1.87;1.30;;;;;;;6.31;42.24;99893.97;4965931;28;20461;-81
2023/05/06 01:35:31;;;;;;;2.50;1.30;;;;;;;6.75;42.75;99885.84;4985689;28;20049;-82
2023/05/06 01:38:09;;;;;;;1.43;1.30;;;;;;;6.64;42.71;99873.53;4968159;28;20042;-82
2023/05/06 01:40:35;;;;;;;5.30;1.60;;;;;;;6.38;42.70;99897.78;4981195;28;20047;-81
2023/05/06 01:43:04;;;;;;;4.17;1.60;;;;;;;6.49;43.13;99890.66;5039306;28;20049;-82
2023/05/06 01:45:33;;;;;;;2.23;1.50;;;;;;;6.47;42.95;99897.84;5017444;28;20046;-82
2023/05/06 01:48:00;;;;;;;1.43;1.33;;;;;;;6.34;42.92;99893.69;5000328;28;20053;-82
2023/05/06 01:50:26;;;;;;;2.43;1.30;;;;;;;6.24;43.17;99895.44;4996101;28;20154;-81
2023/05/06 01:52:59;;;;;;;3.83;1.53;;;;;;;6.49;43.81;99892.44;4995926;28;20050;-80
2023/05/06 01:55:28;;;;;;;11.67;1.70;;;;;;;6.22;43.50;99892.06;4963439;28;20140;-82
2023/05/06 01:57:56;;;;;;;1.50;1.40;;;;;;;6.19;43.40;99893.16;4968451;28;20050;-79
2023/05/06 02:00:24;;;;;;;1.60;1.50;;;;;;;6.28;43.84;99905.59;5034221;28;20056;-79
2023/05/06 02:02:50;;;;;;;1.97;1.40;;;;;;;6.07;44.23;99901.22;5002377;28;20479;-81
2023/05/06 02:05:16;;;;;;;4.37;1.30;;;;;;;6.15;43.89;99898.81;5003661;28;20063;-81
2023/05/06 02:07:47;;;;;;;2.33;1.40;;;;;;;6.14;44.22;99903.25;5004019;28;20060;-81
2023/05/06 02:10:13;;;;;;;3.23;1.50;;;;;;;6.29;44.80;99898.50;5019559;28;20049;-79
2023/05/06 02:12:44;;;;;;;;;;;;;;;6.71;44.20;99898.47;5005232;28;20115;-81
2023/05/06 02:15:12;;;;;;;1.50;1.40;;;;;;;6.20;44.22;99902.75;5019379;28;19916;-76
2023/05/06 02:17:39;;;;;;;5.73;2.10;;;;;;;6.31;44.65;99900.09;5042715;28;20055;-81
2023/05/06 02:20:06;;;;;;;2.97;1.67;;;;;;;6.33;44.55;99907.88;5060196;28;20040;-83
2023/05/06 02:22:33;;;;;;;4.20;1.53;;;;;;;6.21;44.61;99911.50;5043993;28;20186;-83
2023/05/06 02:24:59;;;;;;;5.30;1.30;;;;;;;6.18;44.92;99917.84;5035060;28;20057;-82
2023/05/06 02:27:25;;;;;;;8.07;1.80;;;;;;;6.17;44.75;99916.19;5019408;28;20372;-81
2023/05/06 02:29:54;;;;;;;9.80;1.60;;;;;;;6.20;44.86;99917.72;5019086;28;20593;-81
2023/05/06 02:32:20;;;;;;;2.17;1.60;;;;;;;6.31;45.02;99921.19;5019128;28;20053;-82
2023/05/06 02:34:46;;;;;;;2.30;1.70;;;;;;;6.22;45.14;99926.34;5052066;28;20052;-82
2023/05/06 02:37:13;;;;;;;5.67;1.60;;;;;;;6.37;45.25;99930.38;5020349;28;20602;-79
2023/05/06 02:39:40;;;;;;;3.03;1.73;;;;;;;6.47;45.53;99929.50;5037236;28;20152;-81
2023/05/06 02:42:06;;;;;;;2.70;1.80;;;;;;;6.43;45.46;99925.47;5035199;28;20037;-82
2023/05/06 02:44:32;;;;;;;2.43;1.60;;;;;;;6.32;45.22;99924.66;4982620;28;20049;-77
2023/05/06 02:46:58;;;;;;;2.10;1.60;;;;;;;6.49;45.39;99929.38;4999221;28;20049;-82
2023/05/06 02:49:24;;;;;;;2.47;1.60;;;;;;;6.35;45.25;99924.41;4976153;28;20062;-82
2023/05/06 02:51:52;;;;;;;4.17;1.70;;;;;;;6.37;45.53;99925.97;4960139;28;20050;-81
2023/05/06 02:54:17;;;;;;;3.80;1.53;;;;;;;6.37;45.70;99931.22;4960029;28;20481;-81
2023/05/06 02:56:45;;;;;;;1.70;1.43;;;;;;;6.40;45.63;99936.25;4976255;28;20157;-81
2023/05/06 02:59:11;;;;;;;3.90;1.87;;;;;;;6.43;45.47;99930.72;4985062;28;20053;-82
2023/05/06 03:01:37;;;;;;;6.60;1.90;;;;;;;6.45;45.71;99936.72;4979466;28;20384;-78
2023/05/06 03:04:04;;;;;;;2.23;1.90;;;;;;;6.71;45.98;99940.72;4995292;28;20050;-79
2023/05/06 03:06:31;;;;;;;1.90;1.70;;;;;;;6.45;45.81;99936.72;4979318;28;20388;-80
2023/05/06 03:08:58;;;;;;;4.97;1.83;;;;;;;6.52;45.94;99937.91;4979051;28;20452;-80
2023/05/06 03:11:25;;;;;;;2.70;1.90;;;;;;;6.72;45.88;99950.28;4991766;28;20082;-81
2023/05/06 03:13:50;;;;;;;2.00;1.80;;;;;;;6.62;45.80;99936.19;4975821;28;20193;-82
2023/05/06 03:16:17;;;;;;;16.70;2.10;;;;;;;6.87;45.62;99951.66;4969361;28;20484;-81
2023/05/06 03:18:48;;;;;;;2.90;1.77;;;;;;;6.91;45.05;99957.53;4976103;28;20057;-78
2023/05/06 03:21:16;;;;;;;1.90;1.70;;;;;;;7.23;44.97;99955.69;5009625;28;20503;-77
2023/05/06 03:23:44;;;;;;;4.20;1.87;;;;;;;7.30;44.38;99961.28;4998698;28;20045;-78
2023/05/06 03:26:10;;;;;;;5.73;1.87;;;;;;;7.43;44.17;99969.84;4997935;28;20577;-80
2023/05/06 03:28:36;;;;;;;4.20;1.60;;;;;;;7.52;44.03;99964.63;4997960;28;20037;-80
2023/05/06 03:31:04;;;;;;;4.10;1.90;;;;;;;7.59;43.81;99963.13;4981914;28;20622;-80
2023/05/06 03:33:33;;;;;;;2.53;1.87;;;;;;;7.66;43.25;99968.72;4998685;28;20218;-80
2023/05/06 03:35:59;;;;;;;3.47;1.90;;;;;;;7.67;43.27;99962.47;4998631;28;20065;-81
2023/05/06 03:38:25;;;;;;;2.27;1.80;;;;;;;7.70;42.98;99967.50;4982243;28;20440;-80
2023/05/06 03:40:58;;;;;;;3.43;1.73;;;;;;;7.72;43.11;99965.56;4998085;28;20045;-81
2023/05/06 03:43:25;;;;;;;6.77;1.90;;;;;;;7.77;43.03;99977.41;5017607;28;20053;-81
2023/05/06 03:45:56;;;;;;;6.97;1.92;;;;;;;8.10;42.91;99971.00;5001939;28;20053;-80
2023/05/06 03:48:23;;;;;;;4.93;1.70;;;;;;;7.95;42.34;99969.72;5073893;28;20059;-81
2023/05/06 03:50:50;;;;;;;2.63;1.90;;;;;;;8.18;42.67;99977.28;5058769;28;20052;-80
2023/05/06 03:53:17;;;;;;;3.33;1.70;;;;;;;7.94;42.46;99970.66;5057851;28;20055;-82
2023/05/06 03:55:45;;;;;;;2.87;1.80;;;;;;;7.93;42.57;99977.75;4998354;28;20061;-82
2023/05/06 03:58:12;;;;;;;2.87;1.87;;;;;;;7.93;42.31;99976.94;4997768;28;20057;-82
2023/05/06 04:00:41;;;;;;;2.57;1.80;;;;;;;7.95;42.22;99982.94;4997916;28;20534;-81
2023/05/06 04:03:08;;;;;;;6.93;1.80;;;;;;;8.05;42.09;99976.72;4981902;28;20534;-80
2023/05/06 04:05:41;;;;;;;3.80;1.70;;;;;;;7.92;41.98;99972.59;4946431;28;20078;-80
2023/05/06 04:08:08;;;;;;;5.00;1.57;;;;;;;7.83;42.03;99981.31;4932816;28;20081;-79
2023/05/06 04:10:38;;;;;;;3.37;1.63;;;;;;;8.13;41.95;99984.78;4942119;28;20591;-80
2023/05/06 04:13:07;;;;;;;7.80;2.00;;;;;;;7.81;42.15;99985.94;4924254;28;20043;-81
2023/05/06 04:15:40;;;;;;;1.90;1.67;;;;;;;7.80;41.93;99978.94;4924799;28;20102;-81
2023/05/06 04:18:09;;;;;;;5.68;1.80;;;;;;;7.77;41.85;99987.13;4924080;28;20509;-81
2023/05/06 04:20:38;;;;;;;2.70;1.53;;;;;;;7.79;41.57;99993.16;4923858;28;20168;-80
2023/05/06 04:23:06;;;;;;;3.33;1.87;;;;;;;7.84;41.30;99990.94;4955236;28;20057;-81
2023/05/06 04:25:34;;;;;;;3.00;1.60;;;;;;;7.86;41.06;100000.41;4940993;28;20077;-81
2023/05/06 04:28:00;;;;;;;1.87;1.70;;;;;;;7.89;40.93;99999.31;4981467;28;20041;-81
2023/05/06 04:30:27;;;;;;;1.60;1.50;;;;;;;7.93;40.80;100003.38;4950732;28;20069;-81
2023/05/06 04:32:54;;;;;;;1.63;1.50;;;;;;;7.98;40.72;100002.00;4978218;28;20056;-81
2023/05/06 04:35:20;;;;;;;2.10;1.50;;;;;;;7.91;40.86;100005.31;4961915;28;20050;-76
2023/05/06 04:37:47;;;;;;;1.90;1.60;;;;;;;7.98;40.72;100006.47;5037880;28;20478;-81
2023/05/06 04:40:19;;;;;;;4.90;1.50;;;;;;;8.11;40.31;100009.72;5007927;28;20056;-79
2023/05/06 04:42:48;;;;;;;2.17;1.60;;;;;;;8.18;40.25;100014.31;5024325;28;20044;-81
2023/05/06 04:45:21;;;;;;;;;;;;;;;8.74;39.81;100006.72;5022406;28;20060;-80
2023/05/06 04:47:49;;;;;;;2.80;1.70;;;;;;;8.51;39.73;100022.00;5023926;28;19933;-79
2023/05/06 04:50:17;;;;;;;3.77;1.70;;;;;;;8.40;39.36;100011.53;5024319;28;20086;-80
2023/05/06 04:52:43;;;;;;;1.53;1.43;;;;;;;8.46;38.93;100018.06;5021514;28;20051;-81
2023/05/06 04:55:10;;;;;;;4.83;1.60;;;;;;;8.44;39.05;100022.69;5036473;28;20060;-81
2023/05/06 04:57:39;;;;;;;4.40;1.80;;;;;;;8.43;39.15;100021.00;4991470;28;20061;-81
2023/05/06 05:00:06;;;;;;;2.33;1.67;;;;;;;8.50;39.01;100015.00;4984599;28;20136;-82
2023/05/06 05:02:34;;;;;;;4.37;1.63;;;;;;;8.44;38.64;100015.56;5020092;28;20045;-83
2023/05/06 05:05:00;;;;;;;1.83;1.50;;;;;;;8.55;38.43;100026.03;5019976;28;20419;-82
2023/05/06 05:07:30;;;;;;;3.03;1.67;;;;;;;8.71;38.12;100027.31;5021115;28;20048;-82
2023/05/06 05:09:57;;;;;;;3.70;1.83;;;;;;;8.88;37.36;100026.66;5053385;28;20139;-81
2023/05/06 05:12:23;;;;;;;1.87;1.63;;;;;;;9.00;37.20;100022.88;5003562;28;20199;-79
2023/05/06 05:14:50;;;;;;;1.75;1.50;;;;;;;9.09;36.92;100025.56;5037173;28;20055;-81
2023/05/06 05:17:18;;;;;;;1.27;1.17;;;;;;;9.22;36.34;100031.44;5019863;28;20044;-81
2023/05/06 05:19:47;;;;;;;1.42;1.20;;;;;;;9.56;35.93;100032.63;5020267;28;20056;-82
2023/05/06 05:22:15;;;;;;;1.42;1.30;;;;;;;9.50;35.58;100035.84;5020202;28;20051;-80
2023/05/06 05:24:40;;;;;;;1.50;1.23;;;;;;;9.66;35.16;100029.97;5022027;28;20041;-82
2023/05/06 05:27:06;;;;;;;3.63;1.30;;;;;;;9.72;35.20;100040.00;5045781;28;20052;-82
2023/05/06 05:29:33;;;;;;;1.75;1.15;;;;;;;9.82;34.93;100040.81;5022031;28;20147;-83
2023/05/06 05:32:00;;;;;;;1.50;1.38;;;;;;;9.98;34.69;100036.59;5038651;28;20076;-82
2023/05/06 05:34:26;;;;;;;2.90;1.27;;;;;;;10.14;34.52;100036.84;5037263;28;20056;-77
2023/05/06 05:36:52;;;;;;;7.85;2.63;;;;;;;10.47;34.15;100043.38;5020492;28;20060;-74
2023/05/06 05:39:20;;;;;;;2.88;2.40;;;;;;;10.86;33.48;100034.22;5016833;28;20100;-71
2023/05/06 05:41:47;;;;;;;19.35;8.52;;;;;;;10.77;33.18;100039.59;4993384;28;20400;-75
2023/05/06 05:44:13;;;;;;;3.63;1.98;;;;;;;10.78;33.15;100042.09;4977581;28;20050;-74
2023/05/06 05:46:40;;;;;;;4.40;1.40;;;;;;;10.77;33.33;100035.13;4977651;28;20062;-76
2023/05/06 05:49:08;;;;;;;7.93;1.40;;;;;;;10.79;33.00;100043.78;4977603;28;20054;-77
2023/05/06 05:51:34;;;;;;;5.72;1.67;;;;;;;10.90;32.79;100048.88;4977340;28;20144;-77
2023/05/06 05:54:04;;;;;;;4.20;1.23;;;;;;;10.99;32.81;100041.84;4922803;29;20059;-78
2023/05/06 05:56:32;;;;;;;2.90;1.50;;;;;;;11.03;32.49;100035.22;4923313;29;20453;-76
2023/05/06 05:59:00;;;;;;;5.90;1.38;;;;;;;11.31;32.42;100043.00;4939142;29;20063;-76
2023/05/06 06:01:27;;;;;;;3.00;1.23;;;;;;;11.33;32.36;100046.31;4939749;28;20065;-78
2023/05/06 06:03:54;;;;;;;2.67;1.25;;;;;;;11.25;32.22;100051.56;4941954;28;20230;-77
2023/05/06 06:06:22;;;;;;;3.00;1.65;;;;;;;11.26;32.26;100055.06;4958185;28;20049;-78
2023/05/06 06:08:50;;;;;;;3.63;1.65;;;;;;;11.20;32.26;100050.34;4957842;28;20054;-78
2023/05/06 06:11:16;;;;;;;6.35;1.50;;;;;;;11.18;31.75;100055.81;4959083;28;20054;-79
2023/05/06 06:13:44;;;;;;;2.08;1.10;;;;;;;11.46;31.29;100057.41;4994218;28;20053;-72
2023/05/06 06:16:14;;;;;;;1.20;1.10;;;;;;;11.40;31.01;100060.69;5036990;28;20049;-80
2023/05/06 06:18:40;;;;;;;1.55;1.20;;;;;;;11.71;30.29;100058.47;4970190;28;20566;-79
2023/05/06 06:21:06;;;;;;;3.63;1.30;;;;;;;12.02;29.97;100057.03;4966775;28;20041;-79
2023/05/06 06:23:33;;;;;;;1.13;1.02;;;;;;;12.58;29.50;100064.44;5003789;28;20102;-76
2023/05/06 06:26:06;;;;;;;1.45;1.08;;;;;;;12.88;29.64;100071.91;5039759;28;20173;-79
2023/05/06 06:28:33;;;;;;;4.72;1.35;;;;;;;12.72;29.62;100059.34;5056007;28;20052;-79
2023/05/06 06:31:03;;;;;;;4.18;1.20;;;;;;;12.69;29.43;100057.03;5082679;28;20713;-77
2023/05/06 06:33:55;;;;;;;2.50;1.27;;;;;;;12.65;29.47;100063.69;5077131;28;20048;-74
2023/05/06 06:36:22;;;;;;;6.65;2.10;;;;;;;12.45;29.32;100062.25;5053433;28;20711;-74
2023/05/06 06:38:49;;;;;;;4.70;1.42;;;;;;;12.59;29.48;100071.47;5072060;28;20060;-75
2023/05/06 06:41:17;;;;;;;2.35;1.20;;;;;;;12.78;28.90;100071.19;5029998;28;20063;-76
2023/05/06 06:43:43;;;;;;;2.55;1.30;;;;;;;12.96;28.69;100072.75;5054532;28;20113;-74
2023/05/06 06:46:17;;;;;;;1.42;1.33;;;;;;;13.33;28.57;100070.53;5055089;28;20934;-78
2023/05/06 06:48:44;;;;;;;5.30;1.10;;;;;;;13.15;28.20;100072.50;5089601;28;20039;-78
2023/05/06 06:51:10;;;;;;;4.10;1.20;;;;;;;13.34;27.72;100076.72;5071978;28;20043;-76
2023/05/06 06:53:36;;;;;;;2.40;1.10;;;;;;;13.26;27.61;100074.03;5071540;28;20089;-76
2023/05/06 06:56:02;;;;;;;1.63;1.08;;;;;;;13.33;27.70;100073.19;5054055;28;20131;-75
2023/05/06 06:58:28;;;;;;;1.77;1.00;;;;;;;13.54;27.10;100076.25;5064819;28;20041;-74
2023/05/06 07:00:54;;;;;;;2.40;1.20;;;;;;;13.64;27.29;100081.38;5070305;28;20536;-74
2023/05/06 07:03:20;;;;;;;2.40;1.10;;;;;;;13.97;26.75;100088.41;5039390;28;20169;-79
2023/05/06 07:05:46;;;;;;;2.47;1.25;;;;;;;14.18;26.80;100085.19;5038827;28;20036;-70
2023/05/06 07:08:13;;;;;;;5.32;1.15;;;;;;;14.32;26.35;100076.50;5074178;28;20028;-74
2023/05/06 07:10:40;;;;;;;6.25;2.60;;;;;;;14.59;25.81;100076.09;5046297;28;20756;-75
2023/05/06 07:13:07;;;;;;;2.10;1.50;;;;;;;15.17;25.02;100095.19;5071073;28;20510;-74
2023/05/06 07:15:33;;;;;;;1.38;0.90;;;;;;;16.27;23.83;100090.13;5037211;28;20040;-72
2023/05/06 07:17:59;;;;;;;1.63;1.10;;;;;;;18.02;22.12;100099.50;5038898;28;20044;-72
2023/05/06 07:20:25;;;;;;;3.35;0.98;;;;;;;20.23;19.98;100084.44;5014537;28;20068;-75
2023/05/06 07:22:51;;;;;;;4.35;0.80;;;;;;;21.07;18.34;100105.00;5022857;28;20422;-74
2023/05/06 07:25:17;;;;;;;3.58;1.00;;;;;;;20.71;18.45;100097.41;5039168;28;20053;-74
2023/05/06 07:27:43;;;;;;;4.00;1.15;;;;;;;20.39;18.61;100102.91;5022293;28;20051;-74
2023/05/06 07:30:09;;;;;;;3.55;1.42;;;;;;;20.82;18.05;100102.16;5030488;28;20191;-74
2023/05/06 07:32:35;;;;;;;1.52;1.08;;;;;;;22.18;16.76;100112.44;5022279;28;20120;-75
2023/05/06 07:35:02;;;;;;;2.03;1.40;;;;;;;23.06;16.54;100098.44;5030135;28;20110;-75
2023/05/06 07:37:30;;;;;;;7.15;1.42;;;;;;;22.53;16.34;100094.66;4981290;28;20087;-74
2023/05/06 07:39:56;;;;;;;2.92;1.55;;;;;;;21.67;16.67;100102.63;5028890;28;20073;-76
2023/05/06 07:42:22;;;;;;;2.58;0.90;;;;;;;20.54;17.68;100098.09;5031409;28;20475;-73
2023/05/06 07:44:48;;;;;;;3.78;1.75;;;;;;;20.52;17.61;100102.88;5042654;28;20041;-71
2023/05/06 07:47:28;;;;;;;2.00;0.90;;;;;;;22.57;16.42;100112.94;5015616;28;20102;-71
2023/05/06 07:49:54;;;;;;;4.33;1.00;;;;;;;23.54;15.19;100101.97;5050503;28;20044;-72
2023/05/06 07:52:21;;;;;;;1.65;1.15;;;;;;;25.55;14.07;100103.97;5086160;28;20048;-72
2023/05/06 07:54:47;;;;;;;2.25;0.98;;;;;;;26.66;13.01;100098.53;5035843;28;20580;-72
2023/05/06 07:57:14;;;;;;;1.60;1.05;;;;;;;25.88;12.96;100099.41;5050699;28;20076;-72
2023/05/06 07:59:49;;;;;;;2.05;0.95;;;;;;;24.41;14.01;100107.50;5052142;28;20421;-72
2023/05/06 08:02:16;;;;;;;4.85;0.90;;;;;;;23.71;14.49;100108.41;5051459;28;20049;-71
2023/05/06 08:04:42;;;;;;;3.65;2.00;;;;;;;25.24;13.80;100110.69;5037339;28;20056;-71
2023/05/06 08:07:08;;;;;;;4.72;1.30;;;;;;;25.60;13.28;100115.78;5037265;28;20052;-72
2023/05/06 08:09:35;;;;;;;5.07;1.13;;;;;;;24.93;13.49;100119.28;5053638;28;20032;-71
2023/05/06 08:12:01;;;;;;;2.28;1.20;;;;;;;24.27;13.88;100099.81;5037570;28;20052;-72
2023/05/06 08:14:29;;;;;;;9.63;1.40;;;;;;;26.28;12.70;100110.19;5068000;28;20101;-72
2023/05/06 08:16:55;;;;;;;2.70;1.10;;;;;;;27.57;11.80;100115.00;5020678;28;20519;-72
2023/05/06 08:19:23;;;;;;;5.13;1.10;;;;;;;27.36;12.04;100113.09;5037058;28;20144;-72
2023/05/06 08:21:50;;;;;;;4.78;1.40;;;;;;;26.02;12.26;100108.13;5037185;28;20044;-71
2023/05/06 08:24:16;;;;;;;6.55;1.38;;;;;;;25.42;12.42;100124.13;5036697;28;20139;-72
2023/05/06 08:26:42;;;;;;;4.97;1.63;;;;;;;25.99;12.30;100116.78;5036510;28;20151;-71
2023/05/06 08:29:08;;;;;;;2.60;1.05;;;;;;;26.50;11.70;100113.81;5036695;28;20060;-71
2023/05/06 08:31:34;;;;;;;2.92;0.95;;;;;;;25.47;12.33;100113.38;5036795;28;20109;-72
2023/05/06 08:34:00;;;;;;;4.85;1.73;;;;;;;24.17;12.67;100113.94;5053385;28;20517;-71
2023/05/06 08:36:26;;;;;;;6.60;1.30;;;;;;;24.19;12.92;100119.97;5036954;28;20107;-72
2023/05/06 08:38:52;;;;;;;8.27;1.10;;;;;;;26.25;11.69;100125.13;5053194;28;20047;-72
2023/05/06 08:41:20;;;;;;;1.23;0.88;;;;;;;28.79;10.25;100118.50;5036787;28;20044;-72
2023/05/06 08:43:48;;;;;;;4.97;1.02;;;;;;;30.75;8.78;100128.03;5036757;28;20133;-72
2023/05/06 08:46:16;;;;;;;5.05;1.00;;;;;;;31.86;8.16;100118.22;5050771;28;20133;-72
2023/05/06 08:48:44;;;;;;;1.50;0.90;;;;;;;31.61;8.31;100112.88;5037741;28;20047;-72
2023/05/06 08:51:12;;;;;;;1.13;0.88;;;;;;;31.61;8.22;100104.63;5021485;28;20136;-72
2023/05/06 08:53:42;;;;;;;3.47;1.60;;;;;;;30.58;8.98;100103.63;5037673;28;20052;-72
2023/05/06 08:56:11;;;;;;;4.45;1.40;;;;;;;29.06;9.46;100111.03;5037388;28;20072;-72
2023/05/06 08:58:37;;;;;;;8.18;1.20;;;;;;;27.64;10.06;100110.97;5037908;28;20605;-72
2023/05/06 09:01:04;;;;;;;5.53;1.20;;;;;;;26.30;11.11;100084.38;5041520;28;20040;-72
2023/05/06 09:03:30;;;;;;;4.15;1.38;;;;;;;25.16;11.74;100088.47;5041389;28;20532;-72
2023/05/06 09:05:56;;;;;;;2.38;1.30;;;;;;;24.56;12.17;100094.25;5041686;28;20524;-72
2023/05/06 09:08:23;;;;;;;6.53;2.50;;;;;;;26.23;11.43;100094.59;5041599;28;20391;-72
2023/05/06 09:10:49;;;;;;;5.40;1.52;;;;;;;28.59;9.91;100094.59;5041383;28;20055;-71
2023/05/06 09:13:17;;;;;;;3.60;1.20;;;;;;;31.66;8.54;100109.28;5041349;28;20436;-73
2023/05/06 09:15:49;;;;;;;8.32;1.30;;;;;;;33.15;7.58;100095.28;5041200;28;20045;-72
2023/05/06 09:18:15;;;;;;;2.38;1.10;;;;;;;34.43;6.72;100089.22;5040295;28;20054;-73
2023/05/06 09:20:43;;;;;;;4.45;1.80;;;;;;;35.78;6.23;100100.22;5041270;28;20071;-74
2023/05/06 09:23:12;;;;;;;5.47;1.20;;;;;;;37.16;5.33;100094.41;5040894;28;20048;-73
2023/05/06 09:25:38;;;;;;;1.83;1.10;;;;;;;38.33;4.81;100090.44;5024400;28;20047;-73
2023/05/06 09:28:06;;;;;;;10.75;1.48;;;;;;;37.75;4.63;100088.16;5040784;28;20085;-73
2023/05/06 09:30:32;;;;;;;5.55;1.13;;;;;;;35.29;5.78;100094.69;5024057;28;20051;-73
2023/05/06 09:32:58;;;;;;;11.55;1.63;;;;;;;32.95;6.73;100083.69;5040991;28;20044;-72
2023/05/06 09:35:27;;;;;;;7.57;1.20;;;;;;;34.21;6.06;100092.59;5040829;28;20127;-73
2023/05/06 09:37:55;;;;;;;4.78;1.15;;;;;;;35.58;5.26;100095.16;5057470;28;20529;-72
2023/05/06 09:40:24;;;;;;;11.35;1.95;;;;;;;37.24;5.09;100099.19;5057440;28;20044;-73
2023/05/06 09:42:50;;;;;;;10.93;1.65;;;;;;;36.82;4.84;100095.13;5040886;28;20078;-73
2023/05/06 09:45:16;;;;;;;6.57;1.15;;;;;;;36.36;5.01;100086.41;5040678;28;20360;-73
2023/05/06 09:47:43;;;;;;;7.78;1.55;;;;;;;35.44;5.53;100074.25;5040610;28;20040;-73
2023/05/06 09:50:10;;;;;;;6.18;1.20;;;;;;;34.56;5.72;100093.94;5040599;28;20374;-73
2023/05/06 09:52:36;;;;;;;5.82;1.35;;;;;;;32.41;6.37;100082.03;5057098;28;20425;-72
2023/05/06 09:55:03;;;;;;;8.40;1.40;;;;;;;31.45;6.91;100080.28;5070225;28;20070;-72
2023/05/06 09:57:31;;;;;;;2.50;1.25;;;;;;;29.57;7.93;100082.72;5044950;28;20412;-72
2023/05/06 09:59:57;;;;;;;8.60;2.05;;;;;;;28.24;8.61;100086.13;5060373;28;20143;-72
2023/05/06 10:02:24;;;;;;;3.88;1.20;;;;;;;29.10;8.14;100080.13;5060402;28;20051;-72
2023/05/06 10:04:50;;;;;;;3.88;1.02;;;;;;;29.09;8.24;100086.69;5060376;28;20040;-72
2023/05/06 10:07:21;;;;;;;4.93;1.38;;;;;;;27.98;8.82;100078.84;5060446;28;20047;-71
2023/05/06 10:09:48;;;;;;;10.68;2.03;;;;;;;26.67;9.48;100089.28;5060622;28;20056;-71
2023/05/06 10:12:14;;;;;;;6.78;1.23;;;;;;;25.30;10.16;100084.41;5059190;28;20067;-72
2023/05/06 10:14:40;;;;;;;7.70;1.25;;;;;;;24.73;10.93;100072.66;5059889;28;20089;-72
2023/05/06 10:17:08;;;;;;;5.75;1.67;;;;;;;26.28;9.90;100086.50;5077042;28;20055;-72
2023/05/06 10:19:35;;;;;;;1.52;1.10;;;;;;;28.68;8.56;100089.44;5059045;28;20133;-73
2023/05/06 10:22:20;;;;;;;2.60;1.15;;;;;;;30.68;7.13;100113.72;5075772;28;20052;-73
2023/05/06 10:24:55;;;;;;;2.70;0.95;;;;;;;30.48;6.89;100100.06;5042552;28;20077;-73
2023/05/06 10:27:25;;;;;;;2.38;1.35;;;;;;;29.33;7.77;100095.25;5025753;28;20114;-72
2023/05/06 10:29:55;;;;;;;;;;;;;;;28.30;7.94;100093.28;5059805;28;20142;-71
2023/05/06 10:32:22;;;;;;;2.35;0.73;;;;;;;26.84;9.17;100098.22;5042072;28;20397;-72
2023/05/06 10:34:54;;;;;;;9.77;1.02;;;;;;;25.57;9.61;100097.22;5058757;28;20122;-71
2023/05/06 10:37:24;;;;;;;9.82;1.17;;;;;;;24.29;10.03;100090.38;5042360;28;20464;-72
2023/05/06 10:39:53;;;;;;;;;;;;;;;23.95;10.66;100084.88;5042764;28;20052;-72
2023/05/06 10:42:19;;;;;;;3.88;1.38;;;;;;;24.31;10.33;100085.50;5041994;28;19916;-71
2023/05/06 10:45:03;;;;;;;1.83;1.00;;;;;;;26.36;9.17;100087.97;5041876;28;20052;-71
2023/05/06 10:48:01;;;;;;;2.83;1.30;;;;;;;27.92;8.50;100093.53;5059547;28;20048;-71
2023/05/06 10:50:27;;;;;;;1.85;1.00;;;;;;;27.55;8.50;100087.13;5063308;28;20074;-72
2023/05/06 10:52:55;;;;;;;3.38;0.90;;;;;;;26.80;8.53;100094.38;5042754;28;20040;-71
2023/05/06 10:55:36;;;;;;;4.63;1.00;;;;;;;25.17;10.07;100090.97;5059298;28;20044;-72
2023/05/06 10:58:16;;;;;;;2.42;0.90;;;;;;;23.82;10.78;100091.31;5060124;28;20493;-72
2023/05/06 11:00:52;;;;;;;5.75;1.35;;;;;;;22.84;11.24;100087.22;5059530;28;20493;-71
2023/05/06 11:03:22;;;;;;;2.05;1.15;;;;;;;22.04;11.64;100084.69;5059149;28;20032;-71
2023/05/06 11:05:49;;;;;;;1.40;0.82;;;;;;;21.22;11.93;100083.94;5059138;28;20070;-71
2023/05/06 11:08:21;;;;;;;1.55;0.80;;;;;;;20.80;12.24;100103.44;5059053;28;20450;-72
2023/05/06 11:10:47;;;;;;;2.30;0.90;;;;;;;19.93;12.62;100097.47;5059184;28;20048;-71
2023/05/06 11:13:19;;;;;;;3.05;0.90;;;;;;;20.12;13.04;100099.34;5058780;28;20055;-71
2023/05/06 11:15:46;;;;;;;1.65;1.00;;;;;;;19.64;13.44;100085.22;5058730;28;20135;-71
2023/05/06 11:18:28;;;;;;;3.67;1.13;;;;;;;19.80;13.68;100089.41;5042291;28;20040;-71
2023/05/06 11:20:58;;;;;;;3.33;0.90;;;;;;;19.34;13.68;100093.88;5092143;28;20390;-72
2023/05/06 11:23:41;;;;;;;6.57;1.35;;;;;;;19.06;14.32;100102.03;5058531;28;20048;-72
2023/05/06 11:26:08;;;;;;;6.70;1.00;;;;;;;18.51;14.50;100091.41;5058932;28;20066;-71
2023/05/06 11:28:34;;;;;;;3.70;1.13;;;;;;;18.19;14.50;100094.66;5042563;28;20063;-71
2023/05/06 11:31:01;;;;;;;1.45;0.93;;;;;;;17.93;14.83;100091.75;5058953;28;20058;-71
2023/05/06 11:33:31;;;;;;;2.20;1.10;;;;;;;17.95;14.65;100084.34;5075350;28;20039;-71
2023/05/06 11:35:58;;;;;;;4.00;1.08;;;;;;;17.97;15.01;100088.50;5058638;28;20046;-71
2023/05/06 11:38:25;;;;;;;2.65;1.77;;;;;;;18.04;14.83;100096.59;5058530;28;20043;-71